Terminal Aerodrome Forecast
Issued by NWS Quad Cities IA IL

Home | Current Version | Previous Version | Text Only | Print | Product List | Glossary On
Versions: 1 2 3 4 5 6 7 8 9 10 11 12 13 14 15 16 17 18 19 20 21 22 23 24 25 26 27 28
000
FTUS43 KDVN 250129 AAB
TAFMLI
TAF AMD
KMLI 250129Z 2501/2524 20005KT P6SM VCSH BKN050
     FM250700 16014KT 3SM -SHRA BR OVC015
     FM251300 23015G23KT 5SM BR VCSH BKN020
     FM251500 23016G24KT P6SM SCT035=

USA.gov is the U.S. government's official web portal to all federal, state and local government web resources and services.